Time;durP1;ratioP1;P1;durP2;ratioP2;P2;SDS_P1;SDS_P2;PMS_P1;PMS_P2;Temp;Humidity;BMP_temperature;BMP_pressure;BME280_temperature;BME280_humidity;BME280_pressure;Samples;Min_cycle;Max_cycle;Signal;HPM_P1;HPM_P2
2021/03/02 00:01:50;;;;;;;35.00;33.17;;;;;;;;;;5042932;28;20067;-77
2021/03/02 00:04:18;;;;;;;37.83;35.95;;;;;;;;;;5008981;28;20033;-77
2021/03/02 00:06:45;;;;;;;38.50;36.50;;;;;;;;;;5027479;28;20060;-77
2021/03/02 00:09:12;;;;;;;39.42;37.63;;;;;;;;;;5045954;28;20095;-77
2021/03/02 00:11:44;;;;;;;38.05;36.38;;;;;;;;;;5013692;28;20037;-77
2021/03/02 00:14:11;;;;;;;39.25;37.45;;;;;;;;;;5043169;28;20042;-77
2021/03/02 00:16:41;;;;;;;36.92;35.08;;;;;;;;;;5030384;28;20040;-77
2021/03/02 00:19:13;;;;;;;36.72;35.25;;;;;;;;;;5033448;28;20042;-77
2021/03/02 00:21:42;;;;;;;36.25;34.38;;;;;;;;;;5009136;28;20065;-77
2021/03/02 00:24:14;;;;;;;37.10;35.40;;;;;;;;;;5015124;28;20512;-77
2021/03/02 00:26:44;;;;;;;37.35;35.50;;;;;;;;;;5029660;28;20099;-77
2021/03/02 00:29:11;;;;;;;36.17;34.60;;;;;;;;;;5029064;28;20099;-77
2021/03/02 00:31:41;;;;;;;38.33;36.72;;;;;;;;;;5032283;28;20368;-77
2021/03/02 00:34:08;;;;;;;35.80;34.20;;;;;;;;;;5040872;28;20123;-77
2021/03/02 00:36:35;;;;;;;38.10;36.05;;;;;;;;;;5028635;28;20078;-77
2021/03/02 00:39:02;;;;;;;36.55;34.95;;;;;;;;;;5040161;28;20034;-77
2021/03/02 00:41:29;;;;;;;37.58;35.88;;;;;;;;;;5040932;28;20044;-77
2021/03/02 00:43:57;;;;;;;41.58;39.63;;;;;;;;;;5048183;28;20037;-77
2021/03/02 00:46:24;;;;;;;40.83;38.55;;;;;;;;;;5026423;28;20033;-77
2021/03/02 00:48:51;;;;;;;38.50;36.65;;;;;;;;;;5047710;28;20051;-77
2021/03/02 00:51:18;;;;;;;37.65;35.83;;;;;;;;;;5021622;28;20048;-77
2021/03/02 00:53:46;;;;;;;43.85;40.88;;;;;;;;;;5025338;28;20150;-77
2021/03/02 00:56:12;;;;;;;42.35;39.85;;;;;;;;;;5030441;28;20045;-77
2021/03/02 00:58:41;;;;;;;39.53;37.17;;;;;;;;;;5042335;28;20041;-77
2021/03/02 01:01:08;;;;;;;39.17;36.85;;;;;;;;;;5046876;28;20048;-77
2021/03/02 01:03:35;;;;;;;41.28;39.33;;;;;;;;;;5015366;28;20045;-77
2021/03/02 01:06:02;;;;;;;40.47;38.00;;;;;;;;;;5039739;28;20501;-77
2021/03/02 01:08:29;;;;;;;40.47;38.35;;;;;;;;;;5023443;28;20111;-77
2021/03/02 01:10:55;;;;;;;40.30;37.90;;;;;;;;;;5026290;28;20120;-77
2021/03/02 01:13:23;;;;;;;40.70;38.67;;;;;;;;;;5045283;28;20045;-77
2021/03/02 01:15:50;;;;;;;44.13;41.90;;;;;;;;;;5028900;28;20520;-77
2021/03/02 01:18:17;;;;;;;41.05;38.55;;;;;;;;;;5025203;28;20119;-77
2021/03/02 01:20:44;;;;;;;39.13;37.00;;;;;;;;;;5029499;28;20041;-77
2021/03/02 01:23:11;;;;;;;40.80;38.60;;;;;;;;;;5019388;28;20104;-77
2021/03/02 01:25:38;;;;;;;40.85;38.60;;;;;;;;;;5045285;28;20045;-77
2021/03/02 01:28:05;;;;;;;41.60;39.22;;;;;;;;;;5013976;28;20042;-77
2021/03/02 01:30:32;;;;;;;40.45;38.35;;;;;;;;;;5021711;28;20046;-78
2021/03/02 01:32:59;;;;;;;39.15;37.13;;;;;;;;;;5033874;28;20041;-77
2021/03/02 01:35:27;;;;;;;38.97;37.17;;;;;;;;;;5025973;28;20053;-77
2021/03/02 01:37:54;;;;;;;36.25;34.50;;;;;;;;;;5027195;28;20041;-77
2021/03/02 01:40:23;;;;;;;40.95;38.72;;;;;;;;;;5007549;28;20048;-77
2021/03/02 01:42:50;;;;;;;38.95;37.15;;;;;;;;;;5036241;28;20505;-77
2021/03/02 01:45:18;;;;;;;41.25;38.95;;;;;;;;;;5015161;28;20074;-77
2021/03/02 01:47:46;;;;;;;41.88;39.65;;;;;;;;;;5023752;28;20042;-77
2021/03/02 01:50:13;;;;;;;38.33;35.85;;;;;;;;;;5035948;28;20037;-77
2021/03/02 01:52:40;;;;;;;39.78;37.70;;;;;;;;;;5029567;28;20512;-77
2021/03/02 01:55:08;;;;;;;40.75;38.75;;;;;;;;;;5038984;28;20037;-77
2021/03/02 01:57:35;;;;;;;39.90;37.63;;;;;;;;;;5027871;28;20033;-77
2021/03/02 02:00:07;;;;;;;37.70;36.17;;;;;;;;;;5027271;28;20555;-77
2021/03/02 02:02:40;;;;;;;37.80;35.95;;;;;;;;;;5028928;28;20044;-77
2021/03/02 02:05:09;;;;;;;37.35;35.53;;;;;;;;;;5036824;28;20037;-77
2021/03/02 02:07:41;;;;;;;40.50;38.72;;;;;;;;;;5046328;28;20048;-77
2021/03/02 02:10:16;;;;;;;36.72;34.80;;;;;;;;;;5023555;28;20056;-77
2021/03/02 02:12:49;;;;;;;39.05;37.35;;;;;;;;;;5030070;28;20490;-77
2021/03/02 02:15:21;;;;;;;38.30;36.47;;;;;;;;;;5025969;28;20048;-77
2021/03/02 02:17:58;;;;;;;37.78;36.25;;;;;;;;;;5012936;28;20038;-77
2021/03/02 02:20:25;;;;;;;38.58;36.85;;;;;;;;;;5029083;28;20140;-77
2021/03/02 02:23:11;;;;;;;39.15;37.30;;;;;;;;;;5010091;28;20038;-78
2021/03/02 02:25:45;;;;;;;36.80;35.40;;;;;;;;;;5029280;28;20051;-77
2021/03/02 02:28:13;;;;;;;35.47;34.17;;;;;;;;;;5028888;28;20045;-77
2021/03/02 02:30:42;;;;;;;37.80;36.13;;;;;;;;;;5026476;28;20096;-77
2021/03/02 02:33:12;;;;;;;37.35;35.60;;;;;;;;;;5030056;28;20045;-77
2021/03/02 02:35:41;;;;;;;38.33;36.45;;;;;;;;;;5026342;28;20049;-77
2021/03/02 02:38:09;;;;;;;36.80;34.95;;;;;;;;;;5028375;28;20069;-77
2021/03/02 02:40:37;;;;;;;43.28;40.75;;;;;;;;;;5028523;28;20066;-77
2021/03/02 02:43:06;;;;;;;45.40;42.40;;;;;;;;;;5024150;28;20087;-77
2021/03/02 02:45:33;;;;;;;41.03;38.85;;;;;;;;;;5027354;28;20073;-77
2021/03/02 02:48:00;;;;;;;43.85;41.05;;;;;;;;;;5025084;28;20179;-77
2021/03/02 02:50:29;;;;;;;45.38;42.47;;;;;;;;;;5025655;28;20049;-77
2021/03/02 02:52:56;;;;;;;39.13;37.33;;;;;;;;;;5028576;28;20041;-77
2021/03/02 02:55:36;;;;;;;42.92;40.92;;;;;;;;;;5023451;28;20034;-77
2021/03/02 02:58:05;;;;;;;41.78;39.50;;;;;;;;;;5017461;28;20043;-77
2021/03/02 03:00:33;;;;;;;43.10;40.75;;;;;;;;;;5028747;28;20250;-77
2021/03/02 03:03:01;;;;;;;42.88;40.25;;;;;;;;;;5011319;28;20045;-77
2021/03/02 03:05:30;;;;;;;41.08;39.05;;;;;;;;;;5015302;28;20061;-77
2021/03/02 03:08:02;;;;;;;36.10;34.55;;;;;;;;;;5019315;28;20100;-77
2021/03/02 03:10:30;;;;;;;40.72;38.85;;;;;;;;;;5025905;28;20073;-77
2021/03/02 03:13:00;;;;;;;40.22;38.55;;;;;;;;;;5038377;28;20041;-77
2021/03/02 03:15:27;;;;;;;39.85;37.88;;;;;;;;;;5027049;28;20440;-77
2021/03/02 03:17:55;;;;;;;39.50;37.55;;;;;;;;;;5032462;28;20049;-77
2021/03/02 03:20:23;;;;;;;40.70;38.53;;;;;;;;;;5026484;28;20433;-77
2021/03/02 03:22:51;;;;;;;40.90;39.15;;;;;;;;;;5042612;28;20707;-77
2021/03/02 03:25:18;;;;;;;40.72;39.03;;;;;;;;;;5015741;28;20083;-77
2021/03/02 03:27:50;;;;;;;37.72;36.13;;;;;;;;;;5044410;28;20148;-77
2021/03/02 03:30:17;;;;;;;42.08;39.70;;;;;;;;;;5014197;28;20042;-77
2021/03/02 03:32:46;;;;;;;39.67;38.08;;;;;;;;;;5046803;28;20095;-77
2021/03/02 03:35:14;;;;;;;38.17;36.38;;;;;;;;;;5042967;28;20042;-77
2021/03/02 03:37:41;;;;;;;39.30;37.60;;;;;;;;;;5049609;28;20044;-77
2021/03/02 03:40:08;;;;;;;37.15;35.45;;;;;;;;;;5043625;28;20777;-77
2021/03/02 03:42:35;;;;;;;40.95;39.10;;;;;;;;;;5017822;28;20092;-77
2021/03/02 03:45:04;;;;;;;39.70;37.75;;;;;;;;;;5033692;28;20548;-77
2021/03/02 03:47:31;;;;;;;41.10;39.05;;;;;;;;;;5020567;28;20136;-77
2021/03/02 03:49:58;;;;;;;39.70;37.65;;;;;;;;;;5050099;28;20123;-77
2021/03/02 03:52:25;;;;;;;39.00;37.20;;;;;;;;;;5044326;28;20444;-77
2021/03/02 03:54:54;;;;;;;38.75;36.70;;;;;;;;;;5028942;28;20087;-77
2021/03/02 03:57:24;;;;;;;40.83;38.72;;;;;;;;;;5042546;28;20033;-77
2021/03/02 03:59:52;;;;;;;40.10;37.85;;;;;;;;;;5024229;28;20049;-77
2021/03/02 04:02:20;;;;;;;40.97;38.95;;;;;;;;;;5015587;28;20041;-77
2021/03/02 04:04:48;;;;;;;39.25;37.30;;;;;;;;;;5042895;28;20152;-77
2021/03/02 04:07:15;;;;;;;39.83;38.00;;;;;;;;;;5037778;28;20452;-77
2021/03/02 04:09:42;;;;;;;43.60;41.40;;;;;;;;;;5030382;28;20440;-77
2021/03/02 04:12:12;;;;;;;41.45;39.38;;;;;;;;;;5024766;28;20049;-77
2021/03/02 04:14:40;;;;;;;40.85;38.67;;;;;;;;;;5031253;28;20060;-77
2021/03/02 04:17:10;;;;;;;41.10;39.20;;;;;;;;;;5014581;28;20103;-77
2021/03/02 04:19:38;;;;;;;42.67;40.60;;;;;;;;;;5012369;28;20041;-77
2021/03/02 04:22:04;;;;;;;42.45;40.00;;;;;;;;;;5015050;28;20099;-77
2021/03/02 04:24:31;;;;;;;40.92;38.80;;;;;;;;;;5030502;28;20494;-77
2021/03/02 04:26:58;;;;;;;43.45;41.30;;;;;;;;;;5029001;28;20037;-77
2021/03/02 04:29:25;;;;;;;42.58;40.30;;;;;;;;;;5046364;28;20052;-77
2021/03/02 04:31:52;;;;;;;41.60;39.70;;;;;;;;;;5025857;28;20116;-77
2021/03/02 04:34:19;;;;;;;39.65;38.03;;;;;;;;;;5030441;28;20033;-77
2021/03/02 04:36:46;;;;;;;37.50;36.03;;;;;;;;;;5021500;28;20041;-77
2021/03/02 04:39:13;;;;;;;41.15;39.05;;;;;;;;;;5040844;28;20060;-77
2021/03/02 04:41:40;;;;;;;41.47;39.70;;;;;;;;;;5040537;28;20029;-77
2021/03/02 04:44:07;;;;;;;36.33;34.65;;;;;;;;;;5042941;28;20491;-77
2021/03/02 04:46:34;;;;;;;36.40;34.75;;;;;;;;;;5015452;28;20049;-77
2021/03/02 04:49:01;;;;;;;40.47;38.70;;;;;;;;;;5039172;28;20040;-77
2021/03/02 04:51:28;;;;;;;38.40;36.80;;;;;;;;;;5045687;28;20079;-77
2021/03/02 04:53:55;;;;;;;39.10;37.63;;;;;;;;;;5045827;28;20436;-77
2021/03/02 04:56:22;;;;;;;38.58;36.90;;;;;;;;;;5025062;28;20521;-77
2021/03/02 04:58:48;;;;;;;39.55;38.03;;;;;;;;;;5047681;28;20048;-77
2021/03/02 05:01:16;;;;;;;39.30;37.45;;;;;;;;;;5029471;28;20273;-77
2021/03/02 05:03:43;;;;;;;35.55;34.05;;;;;;;;;;5028370;28;20543;-77
2021/03/02 05:06:10;;;;;;;38.50;37.00;;;;;;;;;;5029704;28;20407;-77
2021/03/02 05:08:37;;;;;;;38.50;36.75;;;;;;;;;;5039414;28;20061;-77
2021/03/02 05:11:04;;;;;;;40.80;39.00;;;;;;;;;;5040344;28;20080;-77
2021/03/02 05:13:31;;;;;;;41.90;39.85;;;;;;;;;;5045322;28;20079;-77
2021/03/02 05:16:09;;;;;;;39.53;37.90;;;;;;;;;;5025594;28;20076;-77
2021/03/02 05:18:36;;;;;;;40.08;38.28;;;;;;;;;;5015198;28;20044;-77
2021/03/02 05:21:04;;;;;;;38.20;36.58;;;;;;;;;;5018667;28;20037;-77
2021/03/02 05:23:31;;;;;;;40.05;38.60;;;;;;;;;;5020012;28;20041;-77
2021/03/02 05:25:58;;;;;;;39.00;37.10;;;;;;;;;;5018590;28;20048;-77
2021/03/02 05:28:24;;;;;;;37.90;36.40;;;;;;;;;;5040482;28;20045;-77
2021/03/02 05:30:52;;;;;;;36.10;34.50;;;;;;;;;;5048067;28;20095;-77
2021/03/02 05:33:19;;;;;;;36.95;35.45;;;;;;;;;;5025715;28;20475;-77
2021/03/02 05:35:47;;;;;;;41.05;39.22;;;;;;;;;;5044233;28;20095;-77
2021/03/02 05:38:14;;;;;;;35.88;34.17;;;;;;;;;;5050756;28;20079;-77
2021/03/02 05:40:41;;;;;;;37.28;35.83;;;;;;;;;;5044615;28;20075;-77
2021/03/02 05:43:09;;;;;;;38.03;36.63;;;;;;;;;;5050649;28;20609;-77
2021/03/02 05:45:36;;;;;;;40.17;38.60;;;;;;;;;;5030428;28;20032;-77
2021/03/02 05:48:09;;;;;;;36.47;35.20;;;;;;;;;;5027346;28;20398;-77
2021/03/02 05:50:37;;;;;;;34.42;32.58;;;;;;;;;;5018420;28;20579;-77
2021/03/02 05:53:05;;;;;;;37.60;35.90;;;;;;;;;;5034093;28;20040;-77
2021/03/02 05:55:35;;;;;;;39.63;38.08;;;;;;;;;;5021838;28;20049;-77
2021/03/02 05:58:05;;;;;;;38.03;36.42;;;;;;;;;;5040482;28;20052;-77
2021/03/02 06:00:32;;;;;;;38.13;36.63;;;;;;;;;;5046801;28;20041;-77
2021/03/02 06:02:59;;;;;;;39.25;37.28;;;;;;;;;;5050522;28;20090;-77
2021/03/02 06:05:27;;;;;;;38.85;37.10;;;;;;;;;;5028460;28;20045;-77
2021/03/02 06:07:53;;;;;;;39.83;38.15;;;;;;;;;;5030224;28;20346;-77
2021/03/02 06:10:27;;;;;;;34.42;33.05;;;;;;;;;;5038133;28;20402;-77
2021/03/02 06:12:55;;;;;;;38.28;36.88;;;;;;;;;;5041507;28;20107;-77
2021/03/02 06:15:23;;;;;;;40.10;38.38;;;;;;;;;;5030656;28;20449;-77
2021/03/02 06:18:13;;;;;;;35.50;33.55;;;;;;;;;;5029571;28;20489;-77
2021/03/02 06:20:40;;;;;;;36.80;35.28;;;;;;;;;;5027849;28;20099;-77
2021/03/02 06:23:25;;;;;;;37.15;35.47;;;;;;;;;;5035646;28;20040;-77
2021/03/02 06:25:52;;;;;;;38.70;37.20;;;;;;;;;;5047082;28;20120;-77
2021/03/02 06:28:42;;;;;;;36.58;35.05;;;;;;;;;;5048018;28;20033;-77
2021/03/02 06:31:29;;;;;;;38.45;37.00;;;;;;;;;;5049359;28;20069;-78
2021/03/02 06:34:08;;;;;;;35.40;34.10;;;;;;;;;;5046325;28;20095;-78
2021/03/02 06:36:35;;;;;;;36.22;34.47;;;;;;;;;;5046904;28;20045;-78
2021/03/02 06:39:22;;;;;;;35.72;34.13;;;;;;;;;;5036976;28;20052;-78
2021/03/02 06:41:49;;;;;;;36.30;34.67;;;;;;;;;;5046690;28;20029;-78
2021/03/02 06:44:16;;;;;;;37.47;35.95;;;;;;;;;;5031239;28;20044;-78
2021/03/02 06:46:44;;;;;;;37.30;35.45;;;;;;;;;;5048417;28;20095;-78
2021/03/02 06:49:11;;;;;;;38.28;36.83;;;;;;;;;;5015037;28;20124;-78
2021/03/02 06:51:39;;;;;;;36.85;35.45;;;;;;;;;;5033003;28;20042;-78
2021/03/02 06:54:07;;;;;;;37.67;36.35;;;;;;;;;;5015647;28;20076;-78
2021/03/02 06:56:35;;;;;;;38.33;36.40;;;;;;;;;;5023620;28;20545;-78
2021/03/02 06:59:18;;;;;;;39.25;37.42;;;;;;;;;;5016049;28;20087;-78
2021/03/02 07:01:47;;;;;;;37.90;35.72;;;;;;;;;;5038716;28;20045;-78
2021/03/02 07:04:17;;;;;;;38.28;36.58;;;;;;;;;;5021729;28;20095;-78
2021/03/02 07:06:46;;;;;;;40.05;37.90;;;;;;;;;;5048943;28;20092;-79
2021/03/02 07:09:16;;;;;;;47.08;43.97;;;;;;;;;;5026897;28;20037;-79
2021/03/02 07:11:43;;;;;;;40.20;37.50;;;;;;;;;;5033990;28;20041;-79
2021/03/02 07:14:11;;;;;;;38.60;36.70;;;;;;;;;;5012607;28;20060;-79
2021/03/02 07:16:43;;;;;;;35.90;34.38;;;;;;;;;;5030373;28;20503;-79
2021/03/02 07:19:13;;;;;;;36.30;34.88;;;;;;;;;;5048959;28;20064;-79
2021/03/02 07:21:41;;;;;;;37.55;35.80;;;;;;;;;;5026893;28;20041;-79
2021/03/02 07:24:12;;;;;;;37.72;36.13;;;;;;;;;;5048702;28;20045;-79
2021/03/02 07:26:47;;;;;;;37.13;34.72;;;;;;;;;;5012496;28;20476;-79
2021/03/02 07:29:14;;;;;;;39.85;37.22;;;;;;;;;;5027240;28;20500;-79
2021/03/02 07:31:42;;;;;;;41.65;39.10;;;;;;;;;;5048789;28;20048;-79
2021/03/02 07:34:11;;;;;;;40.53;38.15;;;;;;;;;;5021565;28;20041;-79
2021/03/02 07:36:39;;;;;;;38.30;36.05;;;;;;;;;;5020114;28;20127;-79
2021/03/02 07:39:11;;;;;;;35.28;33.53;;;;;;;;;;5017179;28;20103;-79
2021/03/02 07:41:38;;;;;;;35.70;33.75;;;;;;;;;;5044780;28;20033;-79
2021/03/02 07:44:05;;;;;;;38.60;36.03;;;;;;;;;;5049979;28;20044;-79
2021/03/02 07:46:41;;;;;;;36.70;34.60;;;;;;;;;;5046607;28;20037;-79
2021/03/02 07:49:24;;;;;;;34.63;32.47;;;;;;;;;;5046619;28;20389;-79
2021/03/02 07:51:57;;;;;;;35.13;33.17;;;;;;;;;;5032847;28;20084;-79
2021/03/02 07:54:24;;;;;;;35.97;33.83;;;;;;;;;;5031994;28;20040;-79
2021/03/02 07:57:11;;;;;;;33.45;30.77;;;;;;;;;;5047641;28;20532;-79
2021/03/02 07:59:38;;;;;;;30.75;29.05;;;;;;;;;;5031575;28;20044;-79
2021/03/02 08:02:18;;;;;;;27.17;25.77;;;;;;;;;;5022494;28;20371;-79
2021/03/02 08:04:45;;;;;;;27.33;26.02;;;;;;;;;;5020355;28;20036;-79
2021/03/02 08:07:21;;;;;;;31.10;29.70;;;;;;;;;;5032644;28;20068;-79
2021/03/02 08:09:49;;;;;;;23.85;22.90;;;;;;;;;;5043921;28;20390;-79
2021/03/02 08:12:27;;;;;;;11.32;11.00;;;;;;;;;;5015688;28;20514;-79
2021/03/02 08:14:55;;;;;;;12.80;12.00;;;;;;;;;;5048512;28;20033;-79
2021/03/02 08:17:23;;;;;;;10.65;9.63;;;;;;;;;;5044933;28;20566;-79
2021/03/02 08:20:00;;;;;;;10.35;9.65;;;;;;;;;;5018848;28;20490;-79
2021/03/02 08:22:30;;;;;;;12.38;11.20;;;;;;;;;;5029546;28;20045;-79
2021/03/02 08:25:04;;;;;;;14.23;12.88;;;;;;;;;;5029185;28;20128;-79
2021/03/02 08:27:49;;;;;;;13.68;11.23;;;;;;;;;;5048069;28;20048;-79
2021/03/02 08:30:20;;;;;;;12.18;11.27;;;;;;;;;;5013569;28;20102;-79
2021/03/02 08:32:46;;;;;;;10.73;10.00;;;;;;;;;;5048598;28;20045;-79
2021/03/02 08:35:15;;;;;;;11.18;10.10;;;;;;;;;;5045570;28;20041;-79
2021/03/02 08:37:43;;;;;;;11.02;10.52;;;;;;;;;;5025713;28;20052;-79
2021/03/02 08:40:12;;;;;;;72.32;40.97;;;;;;;;;;5032008;28;20048;-79
2021/03/02 08:42:58;;;;;;;10.02;8.35;;;;;;;;;;5046205;28;20060;-79
2021/03/02 08:45:25;;;;;;;10.15;9.45;;;;;;;;;;5046408;28;20030;-79
2021/03/02 08:47:52;;;;;;;8.90;8.38;;;;;;;;;;5030208;28;20071;-79
2021/03/02 08:50:35;;;;;;;12.20;11.35;;;;;;;;;;5022630;28;20067;-79
2021/03/02 08:53:01;;;;;;;11.52;10.52;;;;;;;;;;5035541;28;20038;-79
2021/03/02 08:55:38;;;;;;;12.18;11.23;;;;;;;;;;5034821;28;20049;-79
2021/03/02 08:58:05;;;;;;;9.82;9.20;;;;;;;;;;5025687;28;20061;-79
2021/03/02 09:00:32;;;;;;;10.45;9.90;;;;;;;;;;5049565;28;20045;-79
2021/03/02 09:02:59;;;;;;;13.40;12.30;;;;;;;;;;5027101;28;20462;-79
2021/03/02 09:05:26;;;;;;;14.85;13.48;;;;;;;;;;5029318;28;20482;-79
2021/03/02 09:08:08;;;;;;;13.18;12.07;;;;;;;;;;5033278;28;20457;-79
2021/03/02 09:10:36;;;;;;;11.43;10.32;;;;;;;;;;5021965;28;20045;-79
2021/03/02 09:13:06;;;;;;;11.77;10.63;;;;;;;;;;5018609;28;20119;-79
2021/03/02 09:15:42;;;;;;;11.40;10.27;;;;;;;;;;5025567;28;20462;-79
2021/03/02 09:18:16;;;;;;;9.25;8.65;;;;;;;;;;5038714;28;20033;-79
2021/03/02 09:20:55;;;;;;;11.45;10.05;;;;;;;;;;5048711;28;20037;-79
2021/03/02 09:23:23;;;;;;;15.73;14.25;;;;;;;;;;5044556;28;20041;-79
2021/03/02 09:25:53;;;;;;;9.07;8.55;;;;;;;;;;5029248;28;20737;-79
2021/03/02 09:28:20;;;;;;;9.27;8.32;;;;;;;;;;5018957;28;20029;-79
2021/03/02 09:30:47;;;;;;;8.00;7.22;;;;;;;;;;5044108;28;20036;-79
2021/03/02 09:33:14;;;;;;;8.40;7.90;;;;;;;;;;5034135;28;20086;-79
2021/03/02 09:35:42;;;;;;;7.70;7.30;;;;;;;;;;5028047;28;20048;-79
2021/03/02 09:38:27;;;;;;;7.38;6.95;;;;;;;;;;5028500;28;20033;-79
2021/03/02 09:40:54;;;;;;;7.18;6.78;;;;;;;;;;5041047;28;20060;-79
2021/03/02 09:43:21;;;;;;;3.95;3.75;;;;;;;;;;5043721;28;20371;-79
2021/03/02 09:45:54;;;;;;;4.15;3.95;;;;;;;;;;5029309;28;20072;-79
2021/03/02 09:48:22;;;;;;;6.15;5.80;;;;;;;;;;5045101;28;20033;-79
2021/03/02 09:50:49;;;;;;;5.38;5.10;;;;;;;;;;5040370;28;20037;-79
2021/03/02 09:53:17;;;;;;;4.70;4.43;;;;;;;;;;5015724;28;20154;-79
2021/03/02 09:55:48;;;;;;;2.95;2.85;;;;;;;;;;5036490;28;20042;-79
2021/03/02 09:58:15;;;;;;;3.25;3.05;;;;;;;;;;5006505;28;20132;-79
2021/03/02 10:00:42;;;;;;;3.58;3.15;;;;;;;;;;5030398;28;20053;-79
2021/03/02 10:03:14;;;;;;;2.67;2.47;;;;;;;;;;5025485;28;20118;-79
2021/03/02 10:05:42;;;;;;;3.63;3.50;;;;;;;;;;5027470;28;20038;-79
2021/03/02 10:08:16;;;;;;;3.50;3.35;;;;;;;;;;5045905;28;20041;-79
2021/03/02 10:10:43;;;;;;;2.35;2.25;;;;;;;;;;5028080;28;20033;-80
2021/03/02 10:13:10;;;;;;;2.72;2.63;;;;;;;;;;5048783;28;20060;-80
2021/03/02 10:15:37;;;;;;;3.80;3.50;;;;;;;;;;5042744;28;20072;-80
2021/03/02 10:18:25;;;;;;;3.15;3.05;;;;;;;;;;5027538;28;20033;-80
2021/03/02 10:21:05;;;;;;;2.25;2.15;;;;;;;;;;5046635;28;20052;-80
2021/03/02 10:23:32;;;;;;;2.55;2.15;;;;;;;;;;5039097;28;20084;-80
2021/03/02 10:25:59;;;;;;;2.22;2.13;;;;;;;;;;5038674;28;20123;-80
2021/03/02 10:28:30;;;;;;;2.70;2.50;;;;;;;;;;5049232;28;20124;-80
2021/03/02 10:30:57;;;;;;;2.08;1.98;;;;;;;;;;5027257;28;20036;-80
2021/03/02 10:33:24;;;;;;;4.30;2.05;;;;;;;;;;5034317;28;20045;-80
2021/03/02 10:35:53;;;;;;;4.32;2.33;;;;;;;;;;5030156;28;20047;-80
2021/03/02 10:38:20;;;;;;;2.60;2.50;;;;;;;;;;5048715;28;20477;-80
2021/03/02 10:40:47;;;;;;;2.85;2.75;;;;;;;;;;5032281;28;20167;-80
2021/03/02 10:43:15;;;;;;;2.40;2.30;;;;;;;;;;5012345;28;20067;-80
2021/03/02 10:45:42;;;;;;;2.33;2.13;;;;;;;;;;5017070;28;20037;-80
2021/03/02 10:48:10;;;;;;;2.67;2.58;;;;;;;;;;5028517;28;20409;-80
2021/03/02 10:50:37;;;;;;;2.25;2.15;;;;;;;;;;5030641;28;20041;-80
2021/03/02 10:53:05;;;;;;;2.95;2.85;;;;;;;;;;5033386;28;20502;-80
2021/03/02 10:55:31;;;;;;;3.75;3.53;;;;;;;;;;5044963;28;20049;-80
2021/03/02 10:57:59;;;;;;;3.50;3.30;;;;;;;;;;5050531;28;20037;-80
2021/03/02 11:00:27;;;;;;;2.95;2.85;;;;;;;;;;5027510;28;20102;-80
2021/03/02 11:02:54;;;;;;;3.15;2.58;;;;;;;;;;5027975;28;20120;-80
2021/03/02 11:05:21;;;;;;;2.92;2.83;;;;;;;;;;5033142;28;20055;-80
2021/03/02 11:07:48;;;;;;;1.67;1.67;;;;;;;;;;5027576;28;20464;-80
2021/03/02 11:10:18;;;;;;;1.63;1.60;;;;;;;;;;5031769;28;20025;-80
2021/03/02 11:12:45;;;;;;;2.80;2.47;;;;;;;;;;5035765;28;20402;-80
2021/03/02 11:15:12;;;;;;;2.65;2.55;;;;;;;;;;5027832;28;20071;-80
2021/03/02 11:17:40;;;;;;;2.50;2.40;;;;;;;;;;5033970;28;20064;-80
2021/03/02 11:20:08;;;;;;;1.90;1.80;;;;;;;;;;5045731;28;20029;-80
2021/03/02 11:22:40;;;;;;;6.03;2.15;;;;;;;;;;5047699;28;20034;-80
2021/03/02 11:25:07;;;;;;;2.42;2.33;;;;;;;;;;5049933;28;20517;-80
2021/03/02 11:27:34;;;;;;;2.53;2.00;;;;;;;;;;5024416;28;20041;-80
2021/03/02 11:30:02;;;;;;;2.10;2.00;;;;;;;;;;5021898;28;20068;-80
2021/03/02 11:32:29;;;;;;;3.03;2.92;;;;;;;;;;5029271;28;20040;-80
2021/03/02 11:34:57;;;;;;;2.75;2.55;;;;;;;;;;5046501;28;20056;-80
2021/03/02 11:37:24;;;;;;;3.60;2.50;;;;;;;;;;5032428;28;20030;-80
2021/03/02 11:39:50;;;;;;;2.70;2.53;;;;;;;;;;5030691;28;20032;-80
2021/03/02 11:42:17;;;;;;;4.00;3.38;;;;;;;;;;5032658;28;20120;-80
2021/03/02 11:44:44;;;;;;;3.35;2.28;;;;;;;;;;5016257;28;20045;-80
2021/03/02 11:47:11;;;;;;;2.70;2.60;;;;;;;;;;5045605;28;20383;-80
2021/03/02 11:49:38;;;;;;;2.90;2.80;;;;;;;;;;5045651;28;20055;-80
2021/03/02 11:52:05;;;;;;;2.47;2.28;;;;;;;;;;5027702;28;20036;-80
2021/03/02 11:54:32;;;;;;;2.00;1.90;;;;;;;;;;5029380;28;20513;-80
2021/03/02 11:56:59;;;;;;;2.55;2.35;;;;;;;;;;5032716;28;20128;-80
2021/03/02 11:59:26;;;;;;;2.58;2.47;;;;;;;;;;5043970;28;20041;-80
2021/03/02 12:01:53;;;;;;;2.28;2.17;;;;;;;;;;5040854;28;20722;-80
2021/03/02 12:04:20;;;;;;;2.65;2.25;;;;;;;;;;5015702;28;20041;-80
2021/03/02 12:06:46;;;;;;;1.83;1.70;;;;;;;;;;5029725;28;20377;-80
2021/03/02 12:09:13;;;;;;;2.20;2.10;;;;;;;;;;5042902;28;20073;-80
2021/03/02 12:11:40;;;;;;;2.05;1.95;;;;;;;;;;5044231;28;20124;-80
2021/03/02 12:14:07;;;;;;;1.70;1.70;;;;;;;;;;5028037;28;20065;-80
2021/03/02 12:16:34;;;;;;;2.00;1.90;;;;;;;;;;5022982;28;20524;-80
2021/03/02 12:19:01;;;;;;;1.80;1.70;;;;;;;;;;5027164;28;20073;-80
2021/03/02 12:21:28;;;;;;;1.92;1.83;;;;;;;;;;5028900;28;20034;-80
2021/03/02 12:23:55;;;;;;;1.67;1.58;;;;;;;;;;5024162;28;20029;-80
2021/03/02 12:26:22;;;;;;;1.95;1.85;;;;;;;;;;5030248;28;20376;-80
2021/03/02 12:28:49;;;;;;;2.28;2.17;;;;;;;;;;5012041;28;20044;-81
2021/03/02 12:31:16;;;;;;;2.38;2.17;;;;;;;;;;5030962;28;20107;-81
2021/03/02 12:33:43;;;;;;;2.97;2.78;;;;;;;;;;5016035;28;20045;-81
2021/03/02 12:36:09;;;;;;;5.07;4.85;;;;;;;;;;5028007;28;20025;-81
2021/03/02 12:38:37;;;;;;;2.67;2.55;;;;;;;;;;5000583;28;20325;-81
2021/03/02 12:41:04;;;;;;;2.78;2.67;;;;;;;;;;5031860;28;20030;-80
2021/03/02 12:43:31;;;;;;;2.33;2.22;;;;;;;;;;5023813;28;20029;-80
2021/03/02 12:45:58;;;;;;;2.67;2.55;;;;;;;;;;5031650;28;20080;-81
2021/03/02 12:48:25;;;;;;;2.65;2.55;;;;;;;;;;5026710;28;20109;-80
2021/03/02 12:50:51;;;;;;;2.92;2.75;;;;;;;;;;5031381;28;20091;-81
2021/03/02 12:53:18;;;;;;;5.85;3.08;;;;;;;;;;5028855;28;20441;-81
2021/03/02 12:55:45;;;;;;;2.63;2.42;;;;;;;;;;5021562;28;20318;-81
2021/03/02 12:58:12;;;;;;;3.53;3.20;;;;;;;;;;5027400;28;20483;-81
2021/03/02 13:00:39;;;;;;;3.42;3.22;;;;;;;;;;5022103;28;20410;-81
2021/03/02 13:03:07;;;;;;;2.72;2.63;;;;;;;;;;5023279;28;20430;-81
2021/03/02 13:05:35;;;;;;;2.70;2.60;;;;;;;;;;5025297;28;20441;-81
2021/03/02 13:08:02;;;;;;;2.55;2.45;;;;;;;;;;5024520;28;20030;-81
2021/03/02 13:10:29;;;;;;;2.60;2.50;;;;;;;;;;5028758;28;20069;-81
2021/03/02 13:13:01;;;;;;;3.03;2.83;;;;;;;;;;5028249;28;20077;-81
2021/03/02 13:15:28;;;;;;;2.60;2.35;;;;;;;;;;5026136;28;20042;-81
2021/03/02 13:17:56;;;;;;;3.10;3.00;;;;;;;;;;5027928;28;20065;-81
2021/03/02 13:20:23;;;;;;;2.55;2.35;;;;;;;;;;5023746;28;20211;-81
2021/03/02 13:22:55;;;;;;;3.10;3.00;;;;;;;;;;5019031;28;20037;-81
2021/03/02 13:25:22;;;;;;;3.13;2.92;;;;;;;;;;5011469;28;20041;-81
2021/03/02 13:27:52;;;;;;;3.58;3.47;;;;;;;;;;5026864;28;20084;-81
2021/03/02 13:30:24;;;;;;;6.03;5.72;;;;;;;;;;5028952;28;20037;-81
2021/03/02 13:32:51;;;;;;;3.42;3.33;;;;;;;;;;5022880;28;20030;-81
2021/03/02 13:35:22;;;;;;;4.00;2.95;;;;;;;;;;5029332;28;20041;-81
2021/03/02 13:37:50;;;;;;;3.03;2.75;;;;;;;;;;5029058;28;20076;-81
2021/03/02 13:40:19;;;;;;;6.82;3.20;;;;;;;;;;5023425;28;20045;-81
2021/03/02 13:42:50;;;;;;;3.72;3.47;;;;;;;;;;5020563;28;20115;-81
2021/03/02 13:45:18;;;;;;;3.30;3.13;;;;;;;;;;5028115;28;20482;-81
2021/03/02 13:47:45;;;;;;;2.90;2.70;;;;;;;;;;5026232;28;20030;-81
2021/03/02 13:50:14;;;;;;;4.07;3.78;;;;;;;;;;5027122;28;20080;-81
2021/03/02 13:52:41;;;;;;;4.00;3.90;;;;;;;;;;5020557;28;20047;-81
2021/03/02 13:55:08;;;;;;;4.10;4.00;;;;;;;;;;5027271;28;20168;-81
2021/03/02 13:57:37;;;;;;;4.15;3.70;;;;;;;;;;5017366;28;20140;-81
2021/03/02 14:00:06;;;;;;;3.25;2.92;;;;;;;;;;5020847;28;20034;-81
2021/03/02 14:02:35;;;;;;;3.80;3.60;;;;;;;;;;5031899;28;20042;-81
2021/03/02 14:05:05;;;;;;;3.88;3.67;;;;;;;;;;5011751;28;20060;-81
2021/03/02 14:07:32;;;;;;;4.22;4.03;;;;;;;;;;5030047;28;20068;-81
2021/03/02 14:09:59;;;;;;;3.40;3.25;;;;;;;;;;5018163;28;20042;-81
2021/03/02 14:12:26;;;;;;;5.38;5.07;;;;;;;;;;5020609;28;20085;-81
2021/03/02 14:14:55;;;;;;;4.80;4.47;;;;;;;;;;5031319;28;20482;-81
2021/03/02 14:17:24;;;;;;;3.28;3.17;;;;;;;;;;5027482;28;20525;-81
2021/03/02 14:19:51;;;;;;;4.93;4.63;;;;;;;;;;5028509;28;20041;-81
2021/03/02 14:22:21;;;;;;;4.20;3.92;;;;;;;;;;5030121;28;20045;-81
2021/03/02 14:24:48;;;;;;;4.50;4.25;;;;;;;;;;5026707;28;20040;-81
2021/03/02 14:27:16;;;;;;;3.92;3.70;;;;;;;;;;5032518;28;20425;-81
2021/03/02 14:29:45;;;;;;;4.05;3.85;;;;;;;;;;5020240;28;20062;-81
2021/03/02 14:32:13;;;;;;;4.80;4.57;;;;;;;;;;5022738;28;20407;-81
2021/03/02 14:34:40;;;;;;;3.40;3.30;;;;;;;;;;5030830;28;20490;-80
2021/03/02 14:37:07;;;;;;;4.60;4.30;;;;;;;;;;5022028;28;20095;-80